Time;durP1;ratioP1;P1;durP2;ratioP2;P2;SDS_P1;SDS_P2;PMS_P1;PMS_P2;Temp;Humidity;BMP_temperature;BMP_pressure;BME280_temperature;BME280_humidity;BME280_pressure;Samples;Min_cycle;Max_cycle;Signal;HPM_P1;HPM_P2
2023/01/21 00:01:27;;;;;;;;;;;;;;;-1.55;100.00;102482.53;5047310;28;19920;-65
2023/01/21 00:03:53;;;;;;;;;;;;;;;-1.63;100.00;102497.41;5046021;28;19921;-66
2023/01/21 00:06:18;;;;;;;;;;;;;;;-1.67;100.00;102495.06;5036686;28;19917;-65
2023/01/21 00:08:43;;;;;;;;;;;;;;;-1.71;100.00;102498.94;5031216;28;19917;-65
2023/01/21 00:11:10;;;;;;;;;;;;;;;-1.01;100.00;102503.66;5050171;28;19920;-65
2023/01/21 00:13:36;;;;;;;;;;;;;;;-1.40;100.00;102506.50;5049541;28;20011;-65
2023/01/21 00:16:01;;;;;;;;;;;;;;;-1.46;100.00;102508.81;5031812;28;20287;-65
2023/01/21 00:18:27;;;;;;;;;;;;;;;-1.62;100.00;102519.84;5036289;28;20288;-66
2023/01/21 00:20:52;;;;;;;;;;;;;;;-1.63;100.00;102513.56;5049162;28;19917;-65
2023/01/21 00:23:17;;;;;;;;;;;;;;;-1.20;100.00;102520.38;5049440;28;19921;-65
2023/01/21 00:25:42;;;;;;;;;;;;;;;-1.64;100.00;102522.63;5050342;28;19959;-66
2023/01/21 00:28:07;;;;;;;;;;;;;;;-1.53;100.00;102518.28;5049941;28;19917;-66
2023/01/21 00:30:33;;;;;;;;;;;;;;;-1.73;100.00;102522.41;5059639;28;19974;-66
2023/01/21 00:32:58;;;;;;;;;;;;;;;-1.54;100.00;102525.50;5054133;28;20382;-65
2023/01/21 00:35:23;;;;;;;;;;;;;;;-1.27;100.00;102525.31;5049533;28;19928;-66
2023/01/21 00:37:49;;;;;;;;;;;;;;;-1.70;100.00;102516.81;5050013;28;20015;-66
2023/01/21 00:40:15;;;;;;;;;;;;;;;-1.68;100.00;102529.19;5048265;28;19921;-66
2023/01/21 00:42:40;;;;;;;;;;;;;;;-1.48;100.00;102526.91;5045319;28;19928;-66
2023/01/21 00:45:05;;;;;;;;;;;;;;;-1.58;100.00;102524.00;5050436;28;19921;-64
2023/01/21 00:47:31;;;;;;;;;;;;;;;-1.74;100.00;102529.63;5045932;28;19921;-66
2023/01/21 00:49:56;;;;;;;;;;;;;;;-1.81;100.00;102536.44;5047017;28;20011;-66
2023/01/21 00:52:21;;;;;;;;;;;;;;;-1.85;100.00;102541.16;5048542;28;20287;-66
2023/01/21 00:54:46;;;;;;;;;;;;;;;-1.86;100.00;102544.84;5045152;28;19939;-65
2023/01/21 00:57:12;;;;;;;;;;;;;;;-1.86;100.00;102552.06;5046128;28;19929;-65
2023/01/21 00:59:38;;;;;;;;;;;;;;;-1.88;100.00;102560.22;5035116;28;19935;-67
2023/01/21 01:02:03;;;;;;;;;;;;;;;-1.89;100.00;102552.25;5050727;28;19917;-66
2023/01/21 01:04:28;;;;;;;;;;;;;;;-1.90;100.00;102564.88;5043116;28;19917;-65
2023/01/21 01:06:53;;;;;;;;;;;;;;;-1.33;100.00;102563.50;5028590;28;19924;-67
2023/01/21 01:09:18;;;;;;;;;;;;;;;-1.65;100.00;102569.38;5033120;28;19967;-66
2023/01/21 01:11:43;;;;;;;;;;;;;;;-1.64;100.00;102572.94;5048765;28;19928;-66
2023/01/21 01:14:09;;;;;;;;;;;;;;;-1.48;100.00;102581.66;5048270;28;19979;-66
2023/01/21 01:16:34;;;;;;;;;;;;;;;-1.75;100.00;102586.31;5050344;28;20003;-66
2023/01/21 01:18:59;;;;;;;;;;;;;;;-1.84;100.00;102596.75;5047794;28;19955;-65
2023/01/21 01:21:24;;;;;;;;;;;;;;;-1.88;100.00;102608.69;5029481;28;19917;-67
2023/01/21 01:23:53;;;;;;;;;;;;;;;-1.93;100.00;102607.28;5040550;28;20616;-66
2023/01/21 01:26:19;;;;;;;;;;;;;;;-1.94;100.00;102621.72;5049707;28;19916;-66
2023/01/21 01:28:44;;;;;;;;;;;;;;;-1.87;100.00;102623.06;5047933;28;20367;-66
2023/01/21 01:31:13;;;;;;;;;;;;;;;-1.95;100.00;102630.78;5049211;28;20098;-66
2023/01/21 01:33:39;;;;;;;;;;;;;;;-1.99;100.00;102631.97;5047817;28;19921;-66
2023/01/21 01:36:06;;;;;;;;;;;;;;;-1.98;100.00;102626.47;5048557;28;19920;-66
2023/01/21 01:38:31;;;;;;;;;;;;;;;-2.00;100.00;102627.53;5048571;28;19936;-65
2023/01/21 01:40:56;;;;;;;;;;;;;;;-2.01;100.00;102632.06;5044390;28;21148;-66
2023/01/21 01:43:23;;;;;;;;;;;;;;;-2.01;100.00;102647.38;5047100;28;20429;-66
2023/01/21 01:45:48;;;;;;;;;;;;;;;-1.98;100.00;102648.00;5049116;28;19920;-67
2023/01/21 01:48:19;;;;;;;;;;;;;;;-1.54;100.00;102645.91;5047205;28;20284;-67
2023/01/21 01:50:45;;;;;;;;;;;;;;;-1.79;100.00;102642.22;5041092;28;20592;-65
2023/01/21 01:53:11;;;;;;;;;;;;;;;-0.84;100.00;102646.25;5048797;28;19921;-65
2023/01/21 01:55:37;;;;;;;;;;;;;;;-0.87;100.00;102641.06;5048091;28;20371;-66
2023/01/21 01:58:04;;;;;;;;;;;;;;;-0.77;100.00;102650.19;5043060;28;19939;-65
2023/01/21 02:00:29;;;;;;;;;;;;;;;-0.71;100.00;102656.97;5038061;28;19987;-65
2023/01/21 02:05:40;;;;;;;;;;;;;;;-1.78;100.00;102667.31;5048424;28;19970;-65
2023/01/21 02:08:05;;;;;;;;;;;;;;;-1.93;100.00;102672.78;5048473;28;19927;-65
2023/01/21 02:10:30;;;;;;;;;;;;;;;-2.01;100.00;102671.59;5044175;28;19925;-66
2023/01/21 02:12:56;;;;;;;;;;;;;;;-2.07;100.00;102674.72;5043707;28;19961;-66
2023/01/21 02:15:24;;;;;;;;;;;;;;;-2.12;100.00;102685.78;5048526;28;19928;-66
2023/01/21 02:17:58;;;;;;;;;;;;;;;-2.15;100.00;102683.28;5048741;28;19929;-66
2023/01/21 02:20:39;;;;;;;;;;;;;;;-2.16;100.00;102693.19;5048900;28;19917;-67
2023/01/21 02:23:11;;;;;;;;;;;;;;;-2.13;100.00;102692.09;5038708;28;20011;-65
2023/01/21 02:25:55;;;;;;;;;;;;;;;-1.85;100.00;102696.50;5049303;28;19924;-66
2023/01/21 02:28:32;;;;;;;;;;;;;;;-1.34;100.00;102683.09;5047485;28;20319;-66
2023/01/21 02:30:57;;;;;;;;;;;;;;;-0.93;100.00;102684.66;5047574;28;19931;-66
2023/01/21 02:33:32;;;;;;;;;;;;;;;-1.56;100.00;102697.22;5048856;28;19917;-66
2023/01/21 02:36:21;;;;;;;;;;;;;;;-1.84;100.00;102701.78;5049459;28;19924;-66
2023/01/21 02:39:09;;;;;;;;;;;;;;;-2.01;100.00;102711.97;5035611;28;19925;-66
2023/01/21 02:41:44;;;;;;;;;;;;;;;-2.13;100.00;102713.66;5091727;22;20011;-64
2023/01/21 02:44:16;;;;;;;;;;;;;;;-2.18;100.00;102715.78;5054499;28;19932;-63
2023/01/21 02:46:45;;;;;;;;;;;;;;;-2.25;100.00;102717.16;5068931;28;20277;-64
2023/01/21 02:49:14;;;;;;;;;;;;;;;-2.28;100.00;102715.56;5064159;28;19921;-63
2023/01/21 02:51:43;;;;;;;;;;;;;;;-2.23;100.00;102718.81;5053034;28;19925;-63
2023/01/21 02:54:35;;;;;;;;;;;;;;;-2.29;100.00;102723.72;5052217;28;19982;-64
2023/01/21 02:57:00;;;;;;;;;;;;;;;-1.97;100.00;102724.28;5052435;28;19929;-63
2023/01/21 02:59:26;;;;;;;;;;;;;;;-2.13;100.00;102733.38;5056269;28;19920;-63
2023/01/21 03:02:01;;;;;;;;;;;;;;;-1.54;100.00;102724.03;5071212;28;19916;-65
2023/01/21 03:04:44;;;;;;;;;;;;;;;-2.04;100.00;102731.03;5072524;28;20256;-65
2023/01/21 03:07:19;;;;;;;;;;;;;;;-2.00;100.00;102730.72;5072208;28;19912;-65
2023/01/21 03:09:44;;;;;;;;;;;;;;;-1.74;100.00;102731.66;5053575;28;19928;-66
2023/01/21 03:12:24;;;;;;;;;;;;;;;-1.66;100.00;102736.53;5070539;28;20153;-67
2023/01/21 03:17:41;;;;;;;;;;;;;;;-2.04;100.00;102744.47;5051850;28;20509;-66
2023/01/21 03:20:09;;;;;;;;;;;;;;;-1.78;100.00;102743.59;5053094;28;19921;-65
2023/01/21 03:22:36;;;;;;;;;;;;;;;-1.46;100.00;102737.84;5053035;28;19921;-66
2023/01/21 03:25:03;;;;;;;;;;;;;;;-1.39;100.00;102752.63;5051321;28;19984;-65
2023/01/21 03:27:29;;;;;;;;;;;;;;;-1.31;100.00;102744.88;5051463;28;19925;-66
2023/01/21 03:29:57;;;;;;;;;;;;;;;-1.53;100.00;102744.63;5051599;28;20058;-66
2023/01/21 03:32:24;;;;;;;;;;;;;;;-1.52;100.00;102747.22;5051633;28;19921;-66
2023/01/21 03:34:53;;;;;;;;;;;;;;;-1.64;100.00;102748.91;5050711;28;19925;-65
2023/01/21 03:37:18;;;;;;;;;;;;;;;-1.96;100.00;102752.91;5051943;28;20322;-66
2023/01/21 03:39:47;;;;;;;;;;;;;;;-2.03;100.00;102763.22;5084408;28;20000;-65
2023/01/21 03:42:13;;;;;;;;;;;;;;;-2.28;100.00;102766.69;5074645;28;19920;-65
2023/01/21 03:44:39;;;;;;;;;;;;;;;-2.38;100.00;102768.25;5069525;28;19923;-66
2023/01/21 03:47:25;;;;;;;;;;;;;;;-2.45;100.00;102780.34;5050867;28;19928;-65
2023/01/21 03:49:50;;;;;;;;;;;;;;;-2.50;100.00;102782.47;5050866;28;19948;-67
2023/01/21 03:52:17;;;;;;;;;;;;;;;-2.56;100.00;102780.19;5066667;28;19920;-65
2023/01/21 03:54:42;;;;;;;;;;;;;;;-2.57;100.00;102783.84;5052153;28;19921;-65
2023/01/21 03:57:07;;;;;;;;;;;;;;;-2.59;100.00;102781.22;5056113;28;19927;-67
2023/01/21 03:59:32;;;;;;;;;;;;;;;-2.45;100.00;102783.03;5055306;28;19920;-65
2023/01/21 04:01:57;;;;;;;;;;;;;;;-2.60;100.00;102787.56;5051072;28;19921;-65
2023/01/21 04:04:23;;;;;;;;;;;;;;;-2.31;100.00;102785.72;5056286;28;20040;-65
2023/01/21 04:06:48;;;;;;;;;;;;;;;-2.58;100.00;102782.13;5067207;28;19920;-65
2023/01/21 04:09:13;;;;;;;;;;;;;;;-2.61;100.00;102784.03;5070738;28;19917;-67
2023/01/21 04:11:38;;;;;;;;;;;;;;;-2.63;100.00;102785.97;5070866;28;19927;-66
2023/01/21 04:14:04;;;;;;;;;;;;;;;-2.66;100.00;102787.97;5053548;28;19964;-65
2023/01/21 04:16:29;;;;;;;;;;;;;;;-2.67;100.00;102789.78;5051438;28;19927;-65
2023/01/21 04:18:54;;;;;;;;;;;;;;;-2.68;100.00;102793.44;5050503;28;19974;-65
2023/01/21 04:21:19;;;;;;;;;;;;;;;-2.58;100.00;102796.44;5064435;28;19925;-67
2023/01/21 04:23:46;;;;;;;;;;;;;;;-2.64;100.00;102794.09;5048301;28;20418;-65
2023/01/21 04:26:11;;;;;;;;;;;;;;;-2.69;100.00;102802.44;5050946;28;20004;-66
2023/01/21 04:28:37;;;;;;;;;;;;;;;-2.70;100.00;102802.56;5050136;28;19920;-66
2023/01/21 04:31:02;;;;;;;;;;;;;;;-2.70;100.00;102810.63;5054024;28;19920;-65
2023/01/21 04:33:28;;;;;;;;;;;;;;;-2.46;100.00;102801.00;5070786;28;19917;-65
2023/01/21 04:35:57;;;;;;;;;;;;;;;-2.45;100.00;102799.19;5058416;28;19969;-67
2023/01/21 04:38:23;;;;;;;;;;;;;;;-2.36;100.00;102799.47;5070208;28;19924;-65
2023/01/21 04:40:48;;;;;;;;;;;;;;;-2.50;100.00;102793.22;5069251;28;19909;-65
2023/01/21 04:43:13;;;;;;;;;;;;;;;-2.32;100.00;102799.28;5057011;28;19920;-66
2023/01/21 04:45:38;;;;;;;;;;;;;;;-2.55;100.00;102803.41;5050056;28;19932;-66
2023/01/21 04:48:03;;;;;;;;;;;;;;;-2.61;100.00;102805.53;5057401;28;19917;-65
2023/01/21 04:50:29;;;;;;;;;;;;;;;-2.73;100.00;102817.09;5072583;28;20160;-65
2023/01/21 04:52:54;;;;;;;;;;;;;;;-2.78;100.00;102824.56;5069303;28;20330;-65
2023/01/21 04:55:19;;;;;;;;;;;;;;;-2.82;100.00;102825.72;5069838;28;19917;-65
2023/01/21 04:57:44;;;;;;;;;;;;;;;-2.84;100.00;102826.75;5067962;28;19921;-66
2023/01/21 05:00:10;;;;;;;;;;;;;;;-2.84;100.00;102837.50;5050304;28;19971;-65
2023/01/21 05:02:35;;;;;;;;;;;;;;;-2.87;100.00;102836.75;5050451;28;20470;-65
2023/01/21 05:05:00;;;;;;;;;;;;;;;-2.88;100.00;102837.72;5049848;28;19962;-65
2023/01/21 05:07:25;;;;;;;;;;;;;;;-2.90;100.00;102845.00;5050508;28;19990;-66
2023/01/21 05:09:51;;;;;;;;;;;;;;;-2.91;100.00;102850.47;5049452;28;20025;-66
2023/01/21 05:12:16;;;;;;;;;;;;;;;-2.93;100.00;102847.03;5049621;28;19920;-65
2023/01/21 05:14:41;;;;;;;;;;;;;;;-2.92;100.00;102857.69;5049424;28;19920;-65
2023/01/21 05:17:06;;;;;;;;;;;;;;;-2.92;100.00;102852.31;5056438;28;19995;-65
2023/01/21 05:19:31;;;;;;;;;;;;;;;-2.93;100.00;102847.88;5054084;28;19928;-65
2023/01/21 05:21:56;;;;;;;;;;;;;;;-2.88;100.00;102855.69;5060551;28;19974;-66
2023/01/21 05:24:22;;;;;;;;;;;;;;;-2.89;100.00;102848.53;5069223;28;20014;-66
2023/01/21 05:26:48;;;;;;;;;;;;;;;-2.95;100.00;102848.94;5068421;28;19917;-65
2023/01/21 05:29:13;;;;;;;;;;;;;;;-2.96;100.00;102852.56;5053707;28;19948;-66
2023/01/21 05:31:39;;;;;;;;;;;;;;;-2.96;100.00;102857.97;5059080;28;19966;-65
2023/01/21 05:34:04;;;;;;;;;;;;;;;-2.97;100.00;102861.59;5069701;28;19921;-64
2023/01/21 05:36:29;;;;;;;;;;;;;;;-2.97;100.00;102862.47;5055883;28;20010;-66
2023/01/21 05:38:54;;;;;;;;;;;;;;;-2.96;100.00;102872.25;5058971;28;19921;-66
2023/01/21 05:41:19;;;;;;;;;;;;;;;-2.94;100.00;102869.47;5049905;28;19924;-65
2023/01/21 05:43:45;;;;;;;;;;;;;;;-2.96;100.00;102883.00;5077992;28;19932;-65
2023/01/21 05:46:10;;;;;;;;;;;;;;;-2.95;100.00;102881.19;5061903;28;20357;-67
2023/01/21 05:48:35;;;;;;;;;;;;;;;-2.31;100.00;102866.44;5059202;28;19921;-67
2023/01/21 05:51:00;;;;;;;;;;;;;;;-2.18;100.00;102866.50;5067947;28;19916;-65
2023/01/21 05:53:25;;;;;;;;;;;;;;;-1.92;100.00;102870.25;5068250;28;20282;-65
2023/01/21 05:55:52;;;;;;;;;;;;;;;-1.77;100.00;102880.00;5067154;28;19920;-65
2023/01/21 05:58:17;;;;;;;;;;;;;;;-1.63;100.00;102871.00;5056049;28;20015;-65
2023/01/21 06:00:43;;;;;;;;;;;;;;;-1.81;100.00;102880.31;5048361;28;20378;-65
2023/01/21 06:03:08;;;;;;;;;;;;;;;-2.37;100.00;102883.00;5049453;28;19924;-65
2023/01/21 06:05:33;;;;;;;;;;;;;;;-1.98;100.00;102884.06;5068064;28;19963;-65
2023/01/21 06:07:59;;;;;;;;;;;;;;;-2.56;100.00;102890.47;5067105;28;20308;-65
2023/01/21 06:10:24;;;;;;;;;;;;;;;-2.64;100.00;102891.78;5055468;28;19921;-65
2023/01/21 06:12:50;;;;;;;;;;;;;;;-2.78;100.00;102899.00;5047107;28;19921;-65
2023/01/21 06:15:15;;;;;;;;;;;;;;;-2.85;100.00;102905.69;5048045;28;20347;-65
2023/01/21 06:17:41;;;;;;;;;;;;;;;-2.93;100.00;102907.03;5047429;28;19968;-65
2023/01/21 06:20:06;;;;;;;;;;;;;;;-2.95;100.00;102908.06;5048815;28;19912;-65
2023/01/21 06:22:32;;;;;;;;;;;;;;;-2.64;100.00;102907.94;5055303;28;19974;-65
2023/01/21 06:24:57;;;;;;;;;;;;;;;-2.86;100.00;102912.91;5051611;28;19971;-66
2023/01/21 06:27:22;;;;;;;;;;;;;;;-2.18;100.00;102910.47;5047004;28;20020;-65
2023/01/21 06:29:47;;;;;;;;;;;;;;;-2.30;100.00;102908.53;5047336;28;19923;-65
2023/01/21 06:32:12;;;;;;;;;;;;;;;-2.40;100.00;102908.25;5070780;28;19927;-65
2023/01/21 06:34:37;;;;;;;;;;;;;;;-2.15;100.00;102918.34;5080841;28;19925;-66
2023/01/21 06:37:03;;;;;;;;;;;;;;;-2.71;100.00;102922.72;5067332;28;19917;-66
2023/01/21 06:39:28;;;;;;;;;;;;;;;-2.80;100.00;102935.84;5073639;28;19964;-66
2023/01/21 06:41:53;;;;;;;;;;;;;;;-2.61;100.00;102934.66;5058513;28;19921;-65
2023/01/21 06:44:18;;;;;;;;;;;;;;;-2.89;100.00;102937.25;5047847;28;19923;-65
2023/01/21 06:46:43;;;;;;;;;;;;;;;-3.00;100.00;102942.44;5047647;28;19952;-65
2023/01/21 06:49:09;;;;;;;;;;;;;;;-3.07;100.00;102946.44;5062842;28;20263;-66
2023/01/21 06:51:34;;;;;;;;;;;;;;;-3.13;100.00;102948.53;5062091;28;20446;-66
2023/01/21 06:53:59;;;;;;;;;;;;;;;-3.15;100.00;102957.63;5057654;28;19924;-65
2023/01/21 06:56:24;;;;;;;;;;;;;;;-3.18;100.00;102958.69;5067444;28;19916;-65
2023/01/21 06:58:49;;;;;;;;;;;;;;;-3.20;100.00;102960.59;5066319;28;19963;-65
2023/01/21 07:01:15;;;;;;;;;;;;;;;-3.22;100.00;102962.50;5051583;28;20367;-65
2023/01/21 07:03:40;;;;;;;;;;;;;;;-3.25;100.00;102968.03;5047119;28;19966;-65
2023/01/21 07:06:05;;;;;;;;;;;;;;;-3.27;100.00;102967.28;5057866;28;20054;-65
2023/01/21 07:08:30;;;;;;;;;;;;;;;-3.27;100.00;102980.72;5047645;28;20310;-65
2023/01/21 07:10:55;;;;;;;;;;;;;;;-3.21;100.00;102974.97;5047292;28;19925;-65
2023/01/21 07:13:21;;;;;;;;;;;;;;;-2.91;100.00;102972.31;5046024;28;20668;-65
2023/01/21 07:15:46;;;;;;;;;;;;;;;-2.54;100.00;102978.16;5046699;28;19917;-64
2023/01/21 07:18:12;;;;;;;;;;;;;;;-2.17;100.00;102984.88;5046916;28;19960;-66
2023/01/21 07:20:39;;;;;;;;;;;;;;;-2.65;100.00;102986.03;5046677;28;19926;-67
2023/01/21 07:23:04;;;;;;;;;;;;;;;-2.40;100.00;102990.78;5067292;28;20387;-65
2023/01/21 07:25:31;;;;;;;;;;;;;;;-2.26;100.00;102982.75;5070256;28;19921;-65
2023/01/21 07:27:56;;;;;;;;;;;;;;;-2.76;100.00;102991.19;5069401;28;19916;-65
2023/01/21 07:30:21;;;;;;;;;;;;;;;-2.08;100.00;102996.88;5070340;28;19970;-65
2023/01/21 07:32:46;;;;;;;;;;;;;;;-1.86;100.00;102996.41;5068613;28;19921;-65
2023/01/21 07:35:12;;;;;;;;;;;;;;;-1.99;100.00;103007.06;5065469;28;19928;-65
2023/01/21 07:37:37;;;;;;;;;;;;;;;-2.01;100.00;103013.53;5050911;28;19917;-67
2023/01/21 07:40:02;;;;;;;;;;;;;;;-1.91;100.00;103010.16;5056937;28;19928;-66
2023/01/21 07:42:27;;;;;;;;;;;;;;;-2.20;100.00;103019.19;5068914;28;20286;-65
2023/01/21 07:44:53;;;;;;;;;;;;;;;-1.92;100.00;103013.81;5072909;28;20362;-65
2023/01/21 07:47:18;;;;;;;;;;;;;;;-2.05;100.00;103023.63;5070604;28;19917;-66
2023/01/21 07:49:43;;;;;;;;;;;;;;;-1.97;100.00;103024.03;5053037;28;20023;-64
2023/01/21 07:52:08;;;;;;;;;;;;;;;-2.50;100.00;103033.53;5050673;28;19928;-62
2023/01/21 07:54:33;;;;;;;;;;;;;;;-2.51;100.00;103047.94;5050665;28;19917;-65
2023/01/21 07:56:58;;;;;;;;;;;;;;;-2.07;100.00;103047.09;5049146;28;19917;-65
2023/01/21 07:59:24;;;;;;;;;;;;;;;-2.50;100.00;103054.19;5051216;28;20043;-65
2023/01/21 08:01:49;;;;;;;;;;;;;;;-2.54;100.00;103060.72;5070856;28;19924;-64
2023/01/21 08:04:14;;;;;;;;;;;;;;;-2.50;100.00;103062.25;5069956;28;20008;-65
2023/01/21 08:06:40;;;;;;;;;;;;;;;-2.44;100.00;103072.66;5070367;28;19916;-65
2023/01/21 08:09:05;;;;;;;;;;;;;;;-2.43;100.00;103061.81;5069981;28;20248;-65
2023/01/21 08:11:30;;;;;;;;;;;;;;;-1.74;100.00;103068.34;5067659;28;20335;-65
2023/01/21 08:13:56;;;;;;;;;;;;;;;-2.24;100.00;103077.72;5068470;28;19920;-65
2023/01/21 08:16:21;;;;;;;;;;;;;;;-2.25;100.00;103089.44;5070749;28;19917;-65
2023/01/21 08:18:46;;;;;;;;;;;;;;;-2.23;100.00;103078.56;5068110;28;19920;-65
2023/01/21 08:21:11;;;;;;;;;;;;;;;-2.21;100.00;103092.81;5057327;28;20322;-65
2023/01/21 08:23:36;;;;;;;;;;;;;;;-1.87;100.00;103100.59;5049239;28;20008;-65
2023/01/21 08:26:02;;;;;;;;;;;;;;;-1.81;100.00;103103.88;5053271;28;19944;-65
2023/01/21 08:28:27;;;;;;;;;;;;;;;-1.99;100.00;103103.16;5048258;28;20000;-64
2023/01/21 08:30:53;;;;;;;;;;;;;;;-1.34;100.00;103106.25;5049074;28;19960;-65
2023/01/21 08:33:18;;;;;;;;;;;;;;;-1.93;100.00;103105.47;5048138;28;19917;-65
2023/01/21 08:35:43;;;;;;;;;;;;;;;-0.96;100.00;103116.41;5048586;28;19924;-65
2023/01/21 08:38:08;;;;;;;;;;;;;;;-1.58;100.00;103114.91;5057406;28;19924;-65
2023/01/21 08:40:34;;;;;;;;;;;;;;;-1.63;100.00;103118.88;5068301;28;19928;-65
2023/01/21 08:43:00;;;;;;;;;;;;;;;-1.85;100.00;103127.41;5067569;28;20019;-65
2023/01/21 08:45:25;;;;;;;;;;;;;;;-1.72;100.00;103123.03;5068697;28;20167;-66
2023/01/21 08:47:50;;;;;;;;;;;;;;;-1.21;100.00;103125.25;5067974;28;19916;-65
2023/01/21 08:50:16;;;;;;;;;;;;;;;-1.50;100.00;103137.84;5068429;28;19917;-65
2023/01/21 08:52:41;;;;;;;;;;;;;;;-1.21;100.00;103138.72;5066100;28;20235;-65
2023/01/21 08:55:06;;;;;;;;;;;;;;;-0.87;100.00;103127.47;5049697;28;19962;-66
2023/01/21 08:57:31;;;;;;;;;;;;;;;-1.01;100.00;103141.00;5047135;28;19948;-66
2023/01/21 08:59:56;;;;;;;;;;;;;;;-0.92;100.00;103136.81;5047982;28;19963;-66
2023/01/21 09:02:22;;;;;;;;;;;;;;;-0.99;100.00;103138.19;5048350;28;19913;-65
2023/01/21 09:04:49;;;;;;;;;;;;;;;-1.20;100.00;103152.09;5047761;28;19917;-65
2023/01/21 09:07:14;;;;;;;;;;;;;;;-1.24;100.00;103150.53;5048070;28;19920;-65
2023/01/21 09:09:39;;;;;;;;;;;;;;;-1.09;100.00;103154.09;5047513;28;19920;-65
2023/01/21 09:12:05;;;;;;;;;;;;;;;-1.63;100.00;103160.16;5047574;28;19913;-66
2023/01/21 09:14:30;;;;;;;;;;;;;;;-1.13;100.00;103157.94;5047974;28;19978;-66
2023/01/21 09:16:55;;;;;;;;;;;;;;;-1.05;100.00;103155.63;5047660;28;19917;-66
2023/01/21 09:19:22;;;;;;;;;;;;;;;-1.42;100.00;103162.47;5047463;28;19913;-65
2023/01/21 09:21:47;;;;;;;;;;;;;;;-1.21;100.00;103154.88;5047816;28;19917;-65
2023/01/21 09:24:13;;;;;;;;;;;;;;;-1.03;100.00;103142.03;5047372;28;20248;-66
2023/01/21 09:26:42;;;;;;;;;;;;;;;-0.95;100.00;103147.81;5047032;28;19967;-67
2023/01/21 09:29:09;;;;;;;;;;;;;;;-1.19;100.00;103153.81;5047664;28;20297;-67
2023/01/21 09:31:34;;;;;;;;;;;;;;;-1.61;100.00;103166.31;5048151;28;19920;-66
2023/01/21 09:34:01;;;;;;;;;;;;;;;-1.76;100.00;103172.66;5047290;28;19921;-66
2023/01/21 09:36:27;;;;;;;;;;;;;;;-1.75;100.00;103165.44;5047608;28;20011;-66
2023/01/21 09:38:53;;;;;;;;;;;;;;;-1.44;100.00;103170.66;5046579;28;20023;-65
2023/01/21 09:41:29;;;;;;;;;;;;;;;-1.17;100.00;103173.44;5046477;28;20024;-66
2023/01/21 09:43:54;;;;;;;;;;;;;;;-1.26;100.00;103187.53;5047397;28;19920;-65
2023/01/21 09:46:27;;;;;;;;;;;;;;;-1.57;100.00;103191.25;5047567;28;19920;-66
2023/01/21 09:48:53;;;;;;;;;;;;;;;-1.61;100.00;103187.88;5060550;28;19962;-65
2023/01/21 09:51:24;;;;;;;;;;;;;;;-1.49;100.00;103198.88;5067251;28;19917;-65
2023/01/21 09:53:51;;;;;;;;;;;;;;;-0.87;100.00;103196.72;5066244;28;19923;-65
2023/01/21 09:56:33;;;;;;;;;;;;;;;-1.13;100.00;103207.34;5066651;28;19921;-66
2023/01/21 09:59:36;;;;;;;;;;;;;;;-0.84;100.00;103202.81;5066958;28;20338;-65
2023/01/21 10:02:08;;;;;;;;;;;;;;;-0.91;100.00;103211.38;5044374;28;20396;-66
2023/01/21 10:04:44;;;;;;;;;;;;;;;-1.39;100.00;103218.91;5044908;28;19917;-66
2023/01/21 10:07:14;;;;;;;;;;;;;;;-1.09;100.00;103226.91;5057522;28;19966;-66
2023/01/21 10:09:53;;;;;;;;;;;;;;;-1.00;100.00;103223.63;5056139;28;19921;-66
2023/01/21 10:12:39;;;;;;;;;;;;;;;-0.81;100.00;103234.13;5047806;28;19963;-66
2023/01/21 10:15:04;;;;;;;;;;;;;;;-1.30;100.00;103231.81;5048563;28;19916;-65
2023/01/21 10:17:53;;;;;;;;;;;;;;;-1.44;100.00;103229.94;5048612;28;19928;-65
2023/01/21 10:20:26;;;;;;;;;;;;;;;-1.14;100.00;103231.72;5048516;28;20433;-66
2023/01/21 10:22:58;;;;;;;;;;;;;;;-1.28;100.00;103235.25;5063230;28;19924;-66
2023/01/21 10:25:26;;;;;;;;;;;;;;;-1.18;100.00;103228.34;5048722;28;19963;-65
2023/01/21 10:27:52;;;;;;;;;;;;;;;-1.28;100.00;103219.09;5047454;28;19916;-65
2023/01/21 10:30:22;;;;;;;;;;;;;;;-1.18;100.00;103222.94;5048236;28;19923;-66
2023/01/21 10:32:50;;;;;;;;;;;;;;;-1.07;100.00;103225.84;5048023;28;20367;-66
2023/01/21 10:35:23;;;;;;;;;;;;;;;-1.02;100.00;103217.47;5047968;28;19920;-66
2023/01/21 10:38:18;;;;;;;;;;;;;;;-0.95;100.00;103201.78;5048117;28;20027;-66
2023/01/21 10:40:51;;;;;;;;;;;;;;;-0.83;100.00;103200.97;5034705;28;19996;-65
2023/01/21 10:43:29;;;;;;;;;;;;;;;-0.68;100.00;103204.53;5047841;28;20473;-65
2023/01/21 10:46:05;;;;;;;;;;;;;;;-0.63;100.00;103215.88;5047770;28;19916;-66
2023/01/21 10:48:36;;;;;;;;;;;;;;;-0.54;100.00;103213.44;5064840;28;19921;-65
2023/01/21 10:51:20;;;;;;;;;;;;;;;-0.42;100.00;103209.06;5068113;28;19916;-66
2023/01/21 10:53:48;;;;;;;;;;;;;;;-0.12;100.00;103200.78;5066849;28;20329;-66
2023/01/21 10:56:25;;;;;;;;;;;;;;;0.30;100.00;103192.53;5067062;28;19963;-66
2023/01/21 10:58:53;;;;;;;;;;;;;;;0.71;100.00;103193.22;5071534;28;20291;-66
2023/01/21 11:01:21;;;;;;;;;;;;;;;1.17;100.00;103199.91;5072266;28;19924;-65
2023/01/21 11:03:47;;;;;;;;;;;;;;;1.40;100.00;103199.06;5071361;28;19916;-65
2023/01/21 11:06:15;;;;;;;;;;;;;;;1.88;100.00;103201.81;5081151;28;19972;-65
2023/01/21 11:08:43;;;;;;;;;;;;;;;2.42;100.00;103195.81;5090328;28;19927;-65
2023/01/21 11:11:09;;;;;;;;;;;;;;;3.29;100.00;103188.81;5089697;28;20366;-63
2023/01/21 11:13:34;;;;;;;;;;;;;;;4.88;100.00;103186.13;5091819;28;19923;-66
2023/01/21 11:16:00;;;;;;;;;;;;;;;5.65;97.60;103187.38;5090987;28;19931;-65
2023/01/21 11:18:30;;;;;;;;;;;;;;;6.21;95.17;103178.53;5091641;28;19923;-65
2023/01/21 11:20:57;;;;;;;;;;;;;;;6.48;96.55;103178.63;5079819;28;20006;-65
2023/01/21 11:23:34;;;;;;;;;;;;;;;7.59;90.34;103176.03;5070286;28;20428;-65
2023/01/21 11:26:19;;;;;;;;;;;;;;;8.82;86.06;103171.47;5065678;28;19921;-66
2023/01/21 11:28:45;;;;;;;;;;;;;;;9.06;83.36;103172.63;5070127;28;19923;-66
2023/01/21 11:31:14;;;;;;;;;;;;;;;9.18;82.99;103167.72;5069958;28;20366;-65
2023/01/21 11:33:41;;;;;;;;;;;;;;;9.95;81.79;103171.19;5070248;28;20418;-65
2023/01/21 11:36:16;;;;;;;;;;;;;;;10.27;79.52;103171.22;5070399;28;19916;-65
2023/01/21 11:38:42;;;;;;;;;;;;;;;10.58;76.94;103167.78;5070000;28;20246;-66
2023/01/21 11:41:10;;;;;;;;;;;;;;;10.59;74.80;103170.38;5068892;28;19920;-68
2023/01/21 11:43:46;;;;;;;;;;;;;;;10.17;74.58;103167.78;5070048;28;20011;-64
2023/01/21 11:46:27;;;;;;;;;;;;;;;10.69;74.02;103159.16;5070112;28;19973;-65
2023/01/21 11:48:53;;;;;;;;;;;;;;;11.57;74.55;103155.41;5068844;28;19956;-64
2023/01/21 11:51:18;;;;;;;;;;;;;;;12.00;75.12;103153.06;5084660;28;19999;-66
2023/01/21 11:53:45;;;;;;;;;;;;;;;12.12;73.71;103157.97;5067623;28;20015;-64
2023/01/21 11:56:11;;;;;;;;;;;;;;;12.14;73.52;103155.88;5068170;28;19927;-64
2023/01/21 11:58:40;;;;;;;;;;;;;;;11.92;74.94;103159.50;5069862;28;19916;-65
2023/01/21 12:01:19;;;;;;;;;;;;;;;11.46;65.51;103170.44;5064740;28;19927;-65
2023/01/21 12:03:52;;;;;;;;;;;;;;;10.57;74.04;103166.06;5062927;28;19920;-65
2023/01/21 12:06:22;;;;;;;;;;;;;;;10.43;71.65;103166.75;5050572;28;19925;-66
2023/01/21 12:08:49;;;;;;;;;;;;;;;9.97;72.55;103174.63;5063085;28;19924;-65
2023/01/21 12:11:18;;;;;;;;;;;;;;;10.19;74.29;103173.09;5068032;28;20382;-64
2023/01/21 12:13:49;;;;;;;;;;;;;;;10.49;75.04;103177.06;5069725;28;19977;-65
2023/01/21 12:16:20;;;;;;;;;;;;;;;10.86;74.60;103171.84;5070137;28;19927;-65
2023/01/21 12:19:04;;;;;;;;;;;;;;;11.37;74.31;103169.59;5069581;28;19925;-65
2023/01/21 12:21:29;;;;;;;;;;;;;;;11.56;72.49;103164.69;5056035;28;19921;-65
2023/01/21 12:24:13;;;;;;;;;;;;;;;11.82;70.78;103169.91;5069390;28;19966;-66
2023/01/21 12:26:44;;;;;;;;;;;;;;;11.71;70.94;103165.66;5069043;28;19927;-65
2023/01/21 12:29:12;;;;;;;;;;;;;;;11.71;70.73;103168.41;5067111;28;19917;-65
2023/01/21 12:31:45;;;;;;;;;;;;;;;11.12;65.32;103165.25;5051130;28;19928;-66
2023/01/21 12:34:23;;;;;;;;;;;;;;;10.78;69.41;103173.75;5075528;28;19994;-66
2023/01/21 12:36:50;;;;;;;;;;;;;;;10.34;70.60;103174.13;5059820;28;19989;-65